Date,TemperatureHighF,TemperatureAvgF,TemperatureLowF,DewpointHighF,DewpointAvgF,DewpointLowF,HumidityHigh,HumidityAvg,HumidityLow,PressureMaxIn,PressureMinIn,WindSpeedMaxMPH,WindSpeedAvgMPH,GustSpeedMaxMPH,PrecipitationSumIn
2013-3-1,29,26,22,23,19,16,82,77,69,30.16,30.01,15,6,15,0.00
2013-3-2,26,22,16,18,16,13,89,77,67,30.13,30.09,14,4,0,0.00
2013-3-3,30,21,12,19,14,9,88,74,58,30.09,30.01,13,2,13,0.00
2013-3-4,36,21,10,19,14,7,91,76,48,30.17,30.09,7,1,0,0.00
2013-3-5,32,22,10,26,18,8,93,85,72,30.17,29.93,21,5,21,0.00
2013-3-6,38,32,26,31,27,22,91,84,75,30.22,29.96,16,4,16,0.00
2013-3-7,36,30,19,30,23,15,94,76,53,30.42,30.21,13,2,12,0.00
2013-3-8,43,27,14,26,20,12,93,75,49,30.52,30.41,7,1,0,0.00
2013-3-9,45,32,19,32,26,17,95,79,58,30.42,30.02,12,2,0,0.02
2013-3-10,52,43,34,41,37,31,93,79,63,30.03,29.76,9,2,11,0.04
2013-3-11,49,45,36,47,41,33,95,88,74,29.76,29.42,21,4,22,0.35
2013-3-12,36,33,29,33,28,24,91,83,70,29.87,29.59,20,7,23,0.00
2013-3-13,33,28,23,24,18,13,85,69,46,30.20,29.85,22,6,23,0.00
2013-3-14,38,30,21,23,19,14,82,65,46,30.26,30.05,15,4,14,0.00
2013-3-15,38,34,30,33,28,21,85,80,62,30.05,29.86,15,5,16,0.00
2013-3-16,31,26,22,26,22,20,92,86,78,30.05,29.82,14,4,15,0.00
2013-3-17,26,22,14,22,14,8,92,72,50,30.33,30.05,15,4,15,0.00
2013-3-18,33,27,18,31,23,13,95,84,69,30.24,29.56,16,3,16,0.00
2013-3-19,33,25,21,31,19,15,91,79,67,29.89,29.55,28,10,28,0.00
2013-3-20,26,22,17,18,14,11,78,70,59,29.94,29.88,20,7,20,0.00
2013-3-21,31,25,16,23,19,11,87,77,64,29.93,29.84,16,5,18,0.01
2013-3-22,37,29,24,26,21,17,86,72,60,30.04,29.93,17,4,19,0.00
2013-3-23,36,30,23,27,24,20,94,77,66,30.13,30.03,8,2,0,0.00
2013-3-24,36,28,21,28,24,19,95,86,63,30.08,29.73,19,4,22,0.00
2013-3-25,40,35,31,32,28,25,84,76,68,29.94,29.68,16,8,24,0.00
2013-3-26,42,36,31,34,29,25,89,76,63,30.11,29.95,9,3,15,0.01
2013-3-27,47,37,30,30,26,24,81,67,47,30.20,30.10,16,5,19,0.00
2013-3-28,52,40,30,29,26,23,79,60,37,30.26,30.20,9,3,15,0.00
2013-3-29,51,37,23,28,24,20,89,62,36,30.28,30.18,8,1,13,0.00
2013-3-30,54,40,22,30,25,20,95,62,28,30.21,29.88,12,2,18,0.00
2013-3-31,54,44,34,42,36,29,87,74,56,29.88,29.59,16,6,21,0.03